sensor_id;sensor_type;location;lat;lon;timestamp;P1;durP1;ratioP1;P2;durP2;ratioP2
36353;SDS011;22383;51.114;13.666;2024-01-15T00:00:35;19.45;;;8.13;;
36353;SDS011;22383;51.114;13.666;2024-01-15T00:03:03;17.40;;;7.80;;
36353;SDS011;22383;51.114;13.666;2024-01-15T00:05:30;21.35;;;8.38;;
36353;SDS011;22383;51.114;13.666;2024-01-15T00:07:57;21.40;;;9.05;;
36353;SDS011;22383;51.114;13.666;2024-01-15T00:10:24;16.58;;;8.43;;
36353;SDS011;22383;51.114;13.666;2024-01-15T00:12:51;18.88;;;7.93;;
36353;SDS011;22383;51.114;13.666;2024-01-15T00:15:19;22.67;;;8.38;;
36353;SDS011;22383;51.114;13.666;2024-01-15T00:17:46;24.27;;;8.48;;
36353;SDS011;22383;51.114;13.666;2024-01-15T00:20:13;21.10;;;8.77;;
36353;SDS011;22383;51.114;13.666;2024-01-15T00:22:40;22.45;;;8.93;;
36353;SDS011;22383;51.114;13.666;2024-01-15T00:25:07;16.85;;;8.23;;
36353;SDS011;22383;51.114;13.666;2024-01-15T00:27:35;21.35;;;8.15;;
36353;SDS011;22383;51.114;13.666;2024-01-15T00:30:02;20.30;;;8.40;;
36353;SDS011;22383;51.114;13.666;2024-01-15T00:32:30;17.92;;;8.13;;
36353;SDS011;22383;51.114;13.666;2024-01-15T00:34:57;27.33;;;8.52;;
36353;SDS011;22383;51.114;13.666;2024-01-15T00:37:24;21.48;;;9.65;;
36353;SDS011;22383;51.114;13.666;2024-01-15T00:39:51;21.23;;;9.38;;
36353;SDS011;22383;51.114;13.666;2024-01-15T00:44:46;23.83;;;9.18;;
36353;SDS011;22383;51.114;13.666;2024-01-15T00:47:13;22.48;;;7.97;;
36353;SDS011;22383;51.114;13.666;2024-01-15T00:49:40;21.50;;;8.73;;
36353;SDS011;22383;51.114;13.666;2024-01-15T00:52:07;23.52;;;9.55;;
36353;SDS011;22383;51.114;13.666;2024-01-15T00:54:34;20.17;;;8.93;;
36353;SDS011;22383;51.114;13.666;2024-01-15T00:59:30;21.67;;;8.20;;
36353;SDS011;22383;51.114;13.666;2024-01-15T01:01:57;21.83;;;9.25;;
36353;SDS011;22383;51.114;13.666;2024-01-15T01:04:24;23.23;;;9.13;;
36353;SDS011;22383;51.114;13.666;2024-01-15T01:06:51;23.13;;;8.50;;
36353;SDS011;22383;51.114;13.666;2024-01-15T01:11:46;18.48;;;7.63;;
36353;SDS011;22383;51.114;13.666;2024-01-15T01:14:13;17.83;;;8.32;;
36353;SDS011;22383;51.114;13.666;2024-01-15T01:16:40;27.40;;;9.18;;
36353;SDS011;22383;51.114;13.666;2024-01-15T01:19:07;27.58;;;9.55;;
36353;SDS011;22383;51.114;13.666;2024-01-15T01:21:35;21.30;;;9.57;;
36353;SDS011;22383;51.114;13.666;2024-01-15T01:24:02;25.42;;;9.50;;
36353;SDS011;22383;51.114;13.666;2024-01-15T01:26:30;22.85;;;8.85;;
36353;SDS011;22383;51.114;13.666;2024-01-15T01:28:57;23.20;;;9.23;;
36353;SDS011;22383;51.114;13.666;2024-01-15T01:31:24;22.77;;;9.73;;
36353;SDS011;22383;51.114;13.666;2024-01-15T01:33:51;23.00;;;8.82;;
36353;SDS011;22383;51.114;13.666;2024-01-15T01:36:19;26.08;;;9.68;;
36353;SDS011;22383;51.114;13.666;2024-01-15T01:38:46;19.38;;;8.43;;
36353;SDS011;22383;51.114;13.666;2024-01-15T01:41:13;24.92;;;9.30;;
36353;SDS011;22383;51.114;13.666;2024-01-15T01:43:40;20.52;;;9.55;;
36353;SDS011;22383;51.114;13.666;2024-01-15T01:46:07;27.90;;;10.30;;
36353;SDS011;22383;51.114;13.666;2024-01-15T01:48:35;25.88;;;10.65;;
36353;SDS011;22383;51.114;13.666;2024-01-15T01:51:03;25.05;;;9.68;;
36353;SDS011;22383;51.114;13.666;2024-01-15T01:53:32;28.05;;;10.05;;
36353;SDS011;22383;51.114;13.666;2024-01-15T01:56:00;23.48;;;9.40;;
36353;SDS011;22383;51.114;13.666;2024-01-15T01:58:29;29.27;;;10.02;;
36353;SDS011;22383;51.114;13.666;2024-01-15T02:00:58;25.88;;;9.60;;
36353;SDS011;22383;51.114;13.666;2024-01-15T02:03:27;23.52;;;9.25;;
36353;SDS011;22383;51.114;13.666;2024-01-15T02:05:55;20.95;;;9.55;;
36353;SDS011;22383;51.114;13.666;2024-01-15T02:08:23;23.17;;;8.73;;
36353;SDS011;22383;51.114;13.666;2024-01-15T02:10:50;27.33;;;9.93;;
36353;SDS011;22383;51.114;13.666;2024-01-15T02:13:18;25.08;;;8.80;;
36353;SDS011;22383;51.114;13.666;2024-01-15T02:18:12;29.67;;;10.27;;
36353;SDS011;22383;51.114;13.666;2024-01-15T02:20:40;22.75;;;8.27;;
36353;SDS011;22383;51.114;13.666;2024-01-15T02:28:15;26.45;;;11.05;;
36353;SDS011;22383;51.114;13.666;2024-01-15T02:30:44;24.83;;;9.25;;
36353;SDS011;22383;51.114;13.666;2024-01-15T02:33:12;25.25;;;9.68;;
36353;SDS011;22383;51.114;13.666;2024-01-15T02:35:40;27.30;;;9.85;;
36353;SDS011;22383;51.114;13.666;2024-01-15T02:38:07;22.80;;;9.65;;
36353;SDS011;22383;51.114;13.666;2024-01-15T02:40:35;23.63;;;9.77;;
36353;SDS011;22383;51.114;13.666;2024-01-15T02:43:02;21.77;;;8.77;;
36353;SDS011;22383;51.114;13.666;2024-01-15T02:45:30;25.55;;;9.65;;
36353;SDS011;22383;51.114;13.666;2024-01-15T02:47:57;26.48;;;10.07;;
36353;SDS011;22383;51.114;13.666;2024-01-15T02:50:24;23.90;;;9.15;;
36353;SDS011;22383;51.114;13.666;2024-01-15T02:52:52;24.30;;;10.73;;
36353;SDS011;22383;51.114;13.666;2024-01-15T02:55:19;20.27;;;8.63;;
36353;SDS011;22383;51.114;13.666;2024-01-15T02:57:46;25.33;;;9.68;;
36353;SDS011;22383;51.114;13.666;2024-01-15T03:00:13;22.88;;;9.45;;
36353;SDS011;22383;51.114;13.666;2024-01-15T03:02:43;27.13;;;9.32;;
36353;SDS011;22383;51.114;13.666;2024-01-15T03:05:14;20.05;;;8.48;;
36353;SDS011;22383;51.114;13.666;2024-01-15T03:07:42;21.67;;;9.15;;
36353;SDS011;22383;51.114;13.666;2024-01-15T03:10:10;28.27;;;8.32;;
36353;SDS011;22383;51.114;13.666;2024-01-15T03:12:37;25.92;;;9.30;;
36353;SDS011;22383;51.114;13.666;2024-01-15T03:15:04;26.23;;;8.77;;
36353;SDS011;22383;51.114;13.666;2024-01-15T03:19:59;19.85;;;9.32;;
36353;SDS011;22383;51.114;13.666;2024-01-15T03:24:54;26.65;;;9.05;;
36353;SDS011;22383;51.114;13.666;2024-01-15T03:27:21;23.13;;;9.18;;
36353;SDS011;22383;51.114;13.666;2024-01-15T03:29:48;21.42;;;9.68;;
36353;SDS011;22383;51.114;13.666;2024-01-15T03:32:15;25.08;;;9.05;;
36353;SDS011;22383;51.114;13.666;2024-01-15T03:34:43;19.55;;;9.60;;
36353;SDS011;22383;51.114;13.666;2024-01-15T03:37:10;25.45;;;10.75;;
36353;SDS011;22383;51.114;13.666;2024-01-15T03:39:37;22.30;;;8.80;;
36353;SDS011;22383;51.114;13.666;2024-01-15T03:42:09;21.25;;;9.68;;
36353;SDS011;22383;51.114;13.666;2024-01-15T03:44:37;23.45;;;9.20;;
36353;SDS011;22383;51.114;13.666;2024-01-15T03:47:04;24.20;;;10.73;;
36353;SDS011;22383;51.114;13.666;2024-01-15T03:49:31;23.70;;;10.32;;
36353;SDS011;22383;51.114;13.666;2024-01-15T03:51:58;24.85;;;10.30;;
36353;SDS011;22383;51.114;13.666;2024-01-15T03:54:25;21.52;;;8.63;;
36353;SDS011;22383;51.114;13.666;2024-01-15T03:56:53;25.63;;;9.32;;
36353;SDS011;22383;51.114;13.666;2024-01-15T03:59:20;22.02;;;10.60;;
36353;SDS011;22383;51.114;13.666;2024-01-15T04:01:48;28.42;;;10.27;;
36353;SDS011;22383;51.114;13.666;2024-01-15T04:04:17;22.20;;;9.45;;
36353;SDS011;22383;51.114;13.666;2024-01-15T04:06:45;31.05;;;11.23;;
36353;SDS011;22383;51.114;13.666;2024-01-15T04:09:12;24.55;;;9.73;;
36353;SDS011;22383;51.114;13.666;2024-01-15T04:11:40;22.63;;;8.32;;
36353;SDS011;22383;51.114;13.666;2024-01-15T04:14:08;29.20;;;8.98;;
36353;SDS011;22383;51.114;13.666;2024-01-15T04:16:35;22.98;;;9.60;;
36353;SDS011;22383;51.114;13.666;2024-01-15T04:19:04;24.45;;;9.05;;
36353;SDS011;22383;51.114;13.666;2024-01-15T04:21:31;29.98;;;9.52;;
36353;SDS011;22383;51.114;13.666;2024-01-15T04:23:59;26.63;;;9.20;;
36353;SDS011;22383;51.114;13.666;2024-01-15T04:26:26;28.83;;;9.55;;
36353;SDS011;22383;51.114;13.666;2024-01-15T04:28:53;22.80;;;10.63;;
36353;SDS011;22383;51.114;13.666;2024-01-15T04:31:24;24.83;;;9.82;;
36353;SDS011;22383;51.114;13.666;2024-01-15T04:33:52;27.20;;;9.70;;
36353;SDS011;22383;51.114;13.666;2024-01-15T04:36:19;30.63;;;10.75;;
36353;SDS011;22383;51.114;13.666;2024-01-15T04:38:47;21.33;;;8.60;;
36353;SDS011;22383;51.114;13.666;2024-01-15T04:41:14;24.13;;;10.25;;
36353;SDS011;22383;51.114;13.666;2024-01-15T04:43:43;19.77;;;8.73;;
36353;SDS011;22383;51.114;13.666;2024-01-15T04:46:10;22.25;;;9.23;;
36353;SDS011;22383;51.114;13.666;2024-01-15T04:48:37;27.77;;;10.82;;
36353;SDS011;22383;51.114;13.666;2024-01-15T04:51:05;18.63;;;9.15;;
36353;SDS011;22383;51.114;13.666;2024-01-15T04:53:34;19.05;;;9.63;;
36353;SDS011;22383;51.114;13.666;2024-01-15T04:56:02;24.98;;;11.55;;
36353;SDS011;22383;51.114;13.666;2024-01-15T04:58:29;23.77;;;10.52;;
36353;SDS011;22383;51.114;13.666;2024-01-15T05:00:56;24.30;;;9.00;;
36353;SDS011;22383;51.114;13.666;2024-01-15T05:03:24;26.10;;;9.07;;
36353;SDS011;22383;51.114;13.666;2024-01-15T05:08:18;22.58;;;9.70;;
36353;SDS011;22383;51.114;13.666;2024-01-15T05:10:45;25.77;;;9.05;;
36353;SDS011;22383;51.114;13.666;2024-01-15T05:13:14;25.15;;;11.32;;
36353;SDS011;22383;51.114;13.666;2024-01-15T05:15:41;25.40;;;10.38;;
36353;SDS011;22383;51.114;13.666;2024-01-15T05:18:08;27.98;;;11.35;;
36353;SDS011;22383;51.114;13.666;2024-01-15T05:20:36;32.70;;;9.98;;
36353;SDS011;22383;51.114;13.666;2024-01-15T05:23:03;21.75;;;10.02;;
36353;SDS011;22383;51.114;13.666;2024-01-15T05:25:30;27.85;;;11.05;;
36353;SDS011;22383;51.114;13.666;2024-01-15T05:27:57;19.90;;;9.43;;
36353;SDS011;22383;51.114;13.666;2024-01-15T05:30:24;23.58;;;9.80;;
36353;SDS011;22383;51.114;13.666;2024-01-15T05:32:52;25.63;;;9.40;;
36353;SDS011;22383;51.114;13.666;2024-01-15T05:35:19;22.08;;;8.20;;
36353;SDS011;22383;51.114;13.666;2024-01-15T05:37:46;25.02;;;9.93;;
36353;SDS011;22383;51.114;13.666;2024-01-15T05:40:13;23.80;;;10.82;;
36353;SDS011;22383;51.114;13.666;2024-01-15T05:42:41;21.65;;;8.07;;
36353;SDS011;22383;51.114;13.666;2024-01-15T05:45:08;19.67;;;8.32;;
36353;SDS011;22383;51.114;13.666;2024-01-15T05:47:36;18.33;;;7.05;;
36353;SDS011;22383;51.114;13.666;2024-01-15T05:50:03;24.02;;;7.25;;
36353;SDS011;22383;51.114;13.666;2024-01-15T05:52:31;26.25;;;9.63;;
36353;SDS011;22383;51.114;13.666;2024-01-15T05:54:58;20.15;;;8.30;;
36353;SDS011;22383;51.114;13.666;2024-01-15T05:57:26;22.95;;;8.10;;
36353;SDS011;22383;51.114;13.666;2024-01-15T05:59:53;24.55;;;9.40;;
36353;SDS011;22383;51.114;13.666;2024-01-15T06:02:20;22.67;;;7.70;;
36353;SDS011;22383;51.114;13.666;2024-01-15T06:04:48;23.45;;;8.32;;
36353;SDS011;22383;51.114;13.666;2024-01-15T06:07:15;24.35;;;8.88;;
36353;SDS011;22383;51.114;13.666;2024-01-15T06:09:42;23.15;;;9.15;;
36353;SDS011;22383;51.114;13.666;2024-01-15T06:12:10;19.73;;;7.78;;
36353;SDS011;22383;51.114;13.666;2024-01-15T06:14:37;27.83;;;9.27;;
36353;SDS011;22383;51.114;13.666;2024-01-15T06:17:04;22.27;;;9.23;;
36353;SDS011;22383;51.114;13.666;2024-01-15T06:19:31;20.63;;;7.25;;
36353;SDS011;22383;51.114;13.666;2024-01-15T06:21:59;19.90;;;7.93;;
36353;SDS011;22383;51.114;13.666;2024-01-15T06:24:26;15.25;;;7.32;;
36353;SDS011;22383;51.114;13.666;2024-01-15T06:26:54;20.55;;;7.88;;
36353;SDS011;22383;51.114;13.666;2024-01-15T06:29:21;20.40;;;8.48;;
36353;SDS011;22383;51.114;13.666;2024-01-15T06:31:48;20.60;;;9.50;;
36353;SDS011;22383;51.114;13.666;2024-01-15T06:36:43;24.38;;;7.75;;
36353;SDS011;22383;51.114;13.666;2024-01-15T06:39:10;22.25;;;7.47;;
36353;SDS011;22383;51.114;13.666;2024-01-15T06:41:38;23.17;;;8.07;;
36353;SDS011;22383;51.114;13.666;2024-01-15T06:44:11;19.17;;;7.50;;
36353;SDS011;22383;51.114;13.666;2024-01-15T06:46:42;22.00;;;7.80;;
36353;SDS011;22383;51.114;13.666;2024-01-15T06:49:10;18.40;;;8.00;;
36353;SDS011;22383;51.114;13.666;2024-01-15T06:51:38;16.27;;;7.10;;
36353;SDS011;22383;51.114;13.666;2024-01-15T06:54:05;14.07;;;6.70;;
36353;SDS011;22383;51.114;13.666;2024-01-15T06:56:32;20.92;;;6.70;;
36353;SDS011;22383;51.114;13.666;2024-01-15T06:58:59;20.45;;;6.82;;
36353;SDS011;22383;51.114;13.666;2024-01-15T07:01:26;16.23;;;6.55;;
36353;SDS011;22383;51.114;13.666;2024-01-15T07:03:54;16.60;;;6.47;;
36353;SDS011;22383;51.114;13.666;2024-01-15T07:06:21;18.15;;;6.90;;
36353;SDS011;22383;51.114;13.666;2024-01-15T07:08:48;15.93;;;7.13;;
36353;SDS011;22383;51.114;13.666;2024-01-15T07:13:43;11.73;;;5.88;;
36353;SDS011;22383;51.114;13.666;2024-01-15T07:16:11;15.93;;;6.30;;
36353;SDS011;22383;51.114;13.666;2024-01-15T07:18:38;21.58;;;7.45;;
36353;SDS011;22383;51.114;13.666;2024-01-15T07:21:05;14.35;;;6.63;;
36353;SDS011;22383;51.114;13.666;2024-01-15T07:23:32;17.90;;;6.28;;
36353;SDS011;22383;51.114;13.666;2024-01-15T07:25:59;20.00;;;7.70;;
36353;SDS011;22383;51.114;13.666;2024-01-15T07:28:28;19.15;;;7.35;;
36353;SDS011;22383;51.114;13.666;2024-01-15T07:30:56;20.30;;;7.05;;
36353;SDS011;22383;51.114;13.666;2024-01-15T07:35:51;15.63;;;6.55;;
36353;SDS011;22383;51.114;13.666;2024-01-15T07:38:18;16.67;;;7.60;;
36353;SDS011;22383;51.114;13.666;2024-01-15T07:40:45;15.82;;;7.00;;
36353;SDS011;22383;51.114;13.666;2024-01-15T07:43:16;15.40;;;6.75;;
36353;SDS011;22383;51.114;13.666;2024-01-15T07:45:43;18.77;;;6.88;;
36353;SDS011;22383;51.114;13.666;2024-01-15T07:48:12;14.23;;;5.90;;
36353;SDS011;22383;51.114;13.666;2024-01-15T07:50:39;16.13;;;6.35;;
36353;SDS011;22383;51.114;13.666;2024-01-15T07:53:06;21.30;;;7.55;;
36353;SDS011;22383;51.114;13.666;2024-01-15T07:55:34;20.00;;;6.70;;
36353;SDS011;22383;51.114;13.666;2024-01-15T07:58:01;22.75;;;7.20;;
36353;SDS011;22383;51.114;13.666;2024-01-15T08:00:42;19.42;;;6.57;;
36353;SDS011;22383;51.114;13.666;2024-01-15T08:03:10;23.67;;;7.95;;
36353;SDS011;22383;51.114;13.666;2024-01-15T08:05:38;20.80;;;8.18;;
36353;SDS011;22383;51.114;13.666;2024-01-15T08:08:05;21.00;;;7.72;;
36353;SDS011;22383;51.114;13.666;2024-01-15T08:10:32;18.20;;;7.70;;
36353;SDS011;22383;51.114;13.666;2024-01-15T08:12:59;18.77;;;7.60;;
36353;SDS011;22383;51.114;13.666;2024-01-15T08:15:26;19.88;;;8.98;;
36353;SDS011;22383;51.114;13.666;2024-01-15T08:17:57;14.13;;;6.53;;
36353;SDS011;22383;51.114;13.666;2024-01-15T08:20:25;18.80;;;7.32;;
36353;SDS011;22383;51.114;13.666;2024-01-15T08:22:53;19.95;;;8.68;;
36353;SDS011;22383;51.114;13.666;2024-01-15T08:25:20;24.75;;;9.52;;
36353;SDS011;22383;51.114;13.666;2024-01-15T08:27:47;17.90;;;7.78;;
36353;SDS011;22383;51.114;13.666;2024-01-15T08:30:15;15.00;;;7.57;;
36353;SDS011;22383;51.114;13.666;2024-01-15T08:32:42;20.17;;;7.20;;
36353;SDS011;22383;51.114;13.666;2024-01-15T08:35:10;17.27;;;6.50;;
36353;SDS011;22383;51.114;13.666;2024-01-15T08:37:38;20.83;;;7.97;;
36353;SDS011;22383;51.114;13.666;2024-01-15T08:40:06;22.98;;;7.47;;
36353;SDS011;22383;51.114;13.666;2024-01-15T08:42:34;22.63;;;6.80;;
36353;SDS011;22383;51.114;13.666;2024-01-15T08:45:02;19.13;;;7.25;;
36353;SDS011;22383;51.114;13.666;2024-01-15T08:47:29;19.98;;;8.15;;
36353;SDS011;22383;51.114;13.666;2024-01-15T08:49:56;17.05;;;7.47;;
36353;SDS011;22383;51.114;13.666;2024-01-15T08:52:23;15.13;;;6.75;;
36353;SDS011;22383;51.114;13.666;2024-01-15T08:54:51;18.42;;;7.40;;
36353;SDS011;22383;51.114;13.666;2024-01-15T08:57:18;19.13;;;7.55;;
36353;SDS011;22383;51.114;13.666;2024-01-15T08:59:45;25.88;;;8.07;;
36353;SDS011;22383;51.114;13.666;2024-01-15T09:02:12;16.63;;;6.82;;
36353;SDS011;22383;51.114;13.666;2024-01-15T09:04:40;22.33;;;7.13;;
36353;SDS011;22383;51.114;13.666;2024-01-15T09:07:07;18.05;;;6.75;;
36353;SDS011;22383;51.114;13.666;2024-01-15T09:09:35;18.77;;;7.45;;
36353;SDS011;22383;51.114;13.666;2024-01-15T09:14:29;16.58;;;5.95;;
36353;SDS011;22383;51.114;13.666;2024-01-15T09:17:06;12.23;;;6.38;;
36353;SDS011;22383;51.114;13.666;2024-01-15T09:19:33;16.65;;;7.03;;
36353;SDS011;22383;51.114;13.666;2024-01-15T09:22:00;20.30;;;7.25;;
36353;SDS011;22383;51.114;13.666;2024-01-15T09:24:28;20.73;;;6.70;;
36353;SDS011;22383;51.114;13.666;2024-01-15T09:26:55;16.38;;;6.68;;
36353;SDS011;22383;51.114;13.666;2024-01-15T09:29:23;17.73;;;6.97;;
36353;SDS011;22383;51.114;13.666;2024-01-15T09:31:51;18.45;;;7.30;;
36353;SDS011;22383;51.114;13.666;2024-01-15T09:34:19;15.02;;;6.53;;
36353;SDS011;22383;51.114;13.666;2024-01-15T09:36:46;19.08;;;6.32;;
36353;SDS011;22383;51.114;13.666;2024-01-15T09:39:14;17.40;;;6.68;;
36353;SDS011;22383;51.114;13.666;2024-01-15T09:41:42;14.98;;;6.80;;
36353;SDS011;22383;51.114;13.666;2024-01-15T09:44:10;18.45;;;6.60;;
36353;SDS011;22383;51.114;13.666;2024-01-15T09:46:38;17.10;;;6.43;;
36353;SDS011;22383;51.114;13.666;2024-01-15T09:51:34;19.33;;;6.28;;
36353;SDS011;22383;51.114;13.666;2024-01-15T09:54:03;15.73;;;5.93;;
36353;SDS011;22383;51.114;13.666;2024-01-15T09:56:31;14.60;;;6.90;;
36353;SDS011;22383;51.114;13.666;2024-01-15T09:58:58;17.63;;;7.10;;
36353;SDS011;22383;51.114;13.666;2024-01-15T10:01:26;17.58;;;6.57;;
36353;SDS011;22383;51.114;13.666;2024-01-15T10:03:55;24.02;;;6.93;;
36353;SDS011;22383;51.114;13.666;2024-01-15T10:08:50;17.00;;;5.97;;
36353;SDS011;22383;51.114;13.666;2024-01-15T10:13:45;14.10;;;6.28;;
36353;SDS011;22383;51.114;13.666;2024-01-15T10:16:16;11.43;;;5.53;;
36353;SDS011;22383;51.114;13.666;2024-01-15T10:18:43;13.95;;;5.13;;
36353;SDS011;22383;51.114;13.666;2024-01-15T10:21:11;17.88;;;6.57;;
36353;SDS011;22383;51.114;13.666;2024-01-15T10:23:39;14.68;;;5.82;;
36353;SDS011;22383;51.114;13.666;2024-01-15T10:26:06;13.13;;;5.38;;
36353;SDS011;22383;51.114;13.666;2024-01-15T10:28:33;14.70;;;5.95;;
36353;SDS011;22383;51.114;13.666;2024-01-15T10:31:01;13.55;;;5.93;;
36353;SDS011;22383;51.114;13.666;2024-01-15T10:33:29;16.20;;;6.65;;
36353;SDS011;22383;51.114;13.666;2024-01-15T10:35:57;13.00;;;5.82;;
36353;SDS011;22383;51.114;13.666;2024-01-15T10:38:26;14.93;;;6.50;;
36353;SDS011;22383;51.114;13.666;2024-01-15T10:40:54;13.75;;;5.65;;
36353;SDS011;22383;51.114;13.666;2024-01-15T10:43:22;16.42;;;5.90;;
36353;SDS011;22383;51.114;13.666;2024-01-15T10:45:54;17.27;;;5.72;;
36353;SDS011;22383;51.114;13.666;2024-01-15T10:48:21;19.00;;;5.68;;
36353;SDS011;22383;51.114;13.666;2024-01-15T10:50:48;12.98;;;6.95;;
36353;SDS011;22383;51.114;13.666;2024-01-15T10:53:16;15.68;;;5.68;;
36353;SDS011;22383;51.114;13.666;2024-01-15T10:55:44;17.98;;;5.85;;
36353;SDS011;22383;51.114;13.666;2024-01-15T10:58:15;19.95;;;5.20;;
36353;SDS011;22383;51.114;13.666;2024-01-15T11:03:10;11.77;;;5.13;;
36353;SDS011;22383;51.114;13.666;2024-01-15T11:05:39;15.63;;;6.20;;
36353;SDS011;22383;51.114;13.666;2024-01-15T11:08:09;17.85;;;6.68;;
36353;SDS011;22383;51.114;13.666;2024-01-15T11:10:37;14.68;;;5.75;;
36353;SDS011;22383;51.114;13.666;2024-01-15T11:13:07;13.48;;;5.25;;
36353;SDS011;22383;51.114;13.666;2024-01-15T11:15:56;12.85;;;5.63;;
36353;SDS011;22383;51.114;13.666;2024-01-15T11:18:28;15.98;;;6.68;;
36353;SDS011;22383;51.114;13.666;2024-01-15T11:23:50;16.80;;;6.13;;
36353;SDS011;22383;51.114;13.666;2024-01-15T11:26:36;20.88;;;6.18;;
36353;SDS011;22383;51.114;13.666;2024-01-15T11:29:10;17.92;;;6.03;;
36353;SDS011;22383;51.114;13.666;2024-01-15T11:31:58;19.20;;;6.05;;
36353;SDS011;22383;51.114;13.666;2024-01-15T11:37:28;12.20;;;5.75;;
36353;SDS011;22383;51.114;13.666;2024-01-15T11:40:20;14.93;;;5.15;;
36353;SDS011;22383;51.114;13.666;2024-01-15T11:42:49;12.95;;;5.65;;
36353;SDS011;22383;51.114;13.666;2024-01-15T11:45:18;11.20;;;5.53;;
36353;SDS011;22383;51.114;13.666;2024-01-15T11:50:47;13.73;;;6.22;;
36353;SDS011;22383;51.114;13.666;2024-01-15T11:56:16;11.77;;;5.78;;
36353;SDS011;22383;51.114;13.666;2024-01-15T11:58:44;11.15;;;5.63;;
36353;SDS011;22383;51.114;13.666;2024-01-15T12:01:12;11.68;;;5.30;;
36353;SDS011;22383;51.114;13.666;2024-01-15T12:03:39;15.63;;;5.60;;
36353;SDS011;22383;51.114;13.666;2024-01-15T12:06:07;15.45;;;4.85;;
36353;SDS011;22383;51.114;13.666;2024-01-15T12:08:37;12.38;;;5.22;;
36353;SDS011;22383;51.114;13.666;2024-01-15T12:11:07;11.32;;;4.93;;
36353;SDS011;22383;51.114;13.666;2024-01-15T12:13:40;12.50;;;4.88;;
36353;SDS011;22383;51.114;13.666;2024-01-15T12:16:07;10.80;;;4.45;;
36353;SDS011;22383;51.114;13.666;2024-01-15T12:18:35;11.98;;;5.00;;
36353;SDS011;22383;51.114;13.666;2024-01-15T12:21:03;18.75;;;5.35;;
36353;SDS011;22383;51.114;13.666;2024-01-15T12:23:30;11.13;;;5.07;;
36353;SDS011;22383;51.114;13.666;2024-01-15T12:25:58;12.20;;;4.90;;
36353;SDS011;22383;51.114;13.666;2024-01-15T12:28:27;13.02;;;4.70;;
36353;SDS011;22383;51.114;13.666;2024-01-15T12:30:55;15.23;;;5.55;;
36353;SDS011;22383;51.114;13.666;2024-01-15T12:33:22;15.40;;;5.57;;
36353;SDS011;22383;51.114;13.666;2024-01-15T12:35:52;15.98;;;6.20;;
36353;SDS011;22383;51.114;13.666;2024-01-15T12:38:19;12.05;;;4.90;;
36353;SDS011;22383;51.114;13.666;2024-01-15T12:40:48;16.90;;;7.45;;
36353;SDS011;22383;51.114;13.666;2024-01-15T12:43:15;13.15;;;5.53;;
36353;SDS011;22383;51.114;13.666;2024-01-15T12:45:42;14.93;;;6.43;;
36353;SDS011;22383;51.114;13.666;2024-01-15T12:48:10;12.27;;;4.75;;
36353;SDS011;22383;51.114;13.666;2024-01-15T12:50:37;12.90;;;5.00;;
36353;SDS011;22383;51.114;13.666;2024-01-15T12:53:05;15.05;;;5.55;;
36353;SDS011;22383;51.114;13.666;2024-01-15T12:55:32;15.95;;;5.45;;
36353;SDS011;22383;51.114;13.666;2024-01-15T12:57:59;17.08;;;5.22;;
36353;SDS011;22383;51.114;13.666;2024-01-15T13:00:26;12.60;;;4.95;;
36353;SDS011;22383;51.114;13.666;2024-01-15T13:02:54;15.80;;;4.88;;
36353;SDS011;22383;51.114;13.666;2024-01-15T13:05:23;11.25;;;5.38;;
36353;SDS011;22383;51.114;13.666;2024-01-15T13:07:51;18.80;;;5.30;;
36353;SDS011;22383;51.114;13.666;2024-01-15T13:10:19;15.05;;;5.13;;
36353;SDS011;22383;51.114;13.666;2024-01-15T13:12:46;16.40;;;6.57;;
36353;SDS011;22383;51.114;13.666;2024-01-15T13:15:13;14.32;;;5.72;;
36353;SDS011;22383;51.114;13.666;2024-01-15T13:17:41;12.63;;;5.45;;
36353;SDS011;22383;51.114;13.666;2024-01-15T13:20:11;13.70;;;6.25;;
36353;SDS011;22383;51.114;13.666;2024-01-15T13:22:39;16.98;;;5.78;;
36353;SDS011;22383;51.114;13.666;2024-01-15T13:25:07;14.40;;;5.63;;
36353;SDS011;22383;51.114;13.666;2024-01-15T13:27:36;16.45;;;6.47;;
36353;SDS011;22383;51.114;13.666;2024-01-15T13:30:05;11.80;;;6.03;;
36353;SDS011;22383;51.114;13.666;2024-01-15T13:32:35;11.80;;;5.65;;
36353;SDS011;22383;51.114;13.666;2024-01-15T13:35:02;13.82;;;5.57;;
36353;SDS011;22383;51.114;13.666;2024-01-15T13:37:32;14.93;;;5.85;;
36353;SDS011;22383;51.114;13.666;2024-01-15T13:40:00;16.38;;;5.43;;
36353;SDS011;22383;51.114;13.666;2024-01-15T13:44:55;12.80;;;4.45;;
36353;SDS011;22383;51.114;13.666;2024-01-15T13:47:22;21.35;;;7.60;;
36353;SDS011;22383;51.114;13.666;2024-01-15T13:49:49;14.57;;;5.38;;
36353;SDS011;22383;51.114;13.666;2024-01-15T13:52:16;14.35;;;5.30;;
36353;SDS011;22383;51.114;13.666;2024-01-15T13:54:44;11.57;;;5.70;;
36353;SDS011;22383;51.114;13.666;2024-01-15T13:57:17;14.60;;;6.15;;
36353;SDS011;22383;51.114;13.666;2024-01-15T13:59:45;16.27;;;7.35;;
36353;SDS011;22383;51.114;13.666;2024-01-15T14:02:13;19.27;;;6.03;;
36353;SDS011;22383;51.114;13.666;2024-01-15T14:04:46;18.88;;;6.70;;
36353;SDS011;22383;51.114;13.666;2024-01-15T14:07:14;23.52;;;7.60;;
36353;SDS011;22383;51.114;13.666;2024-01-15T14:12:09;20.50;;;7.20;;
36353;SDS011;22383;51.114;13.666;2024-01-15T14:14:36;24.83;;;8.45;;
36353;SDS011;22383;51.114;13.666;2024-01-15T14:17:04;19.38;;;7.25;;
36353;SDS011;22383;51.114;13.666;2024-01-15T14:19:31;15.05;;;7.13;;
36353;SDS011;22383;51.114;13.666;2024-01-15T14:21:58;16.23;;;7.50;;
36353;SDS011;22383;51.114;13.666;2024-01-15T14:24:25;15.65;;;7.47;;
36353;SDS011;22383;51.114;13.666;2024-01-15T14:26:53;22.95;;;7.28;;
36353;SDS011;22383;51.114;13.666;2024-01-15T14:29:20;16.98;;;7.38;;
36353;SDS011;22383;51.114;13.666;2024-01-15T14:31:49;21.13;;;8.05;;
36353;SDS011;22383;51.114;13.666;2024-01-15T14:34:16;22.70;;;7.13;;
36353;SDS011;22383;51.114;13.666;2024-01-15T14:36:45;20.67;;;7.18;;
36353;SDS011;22383;51.114;13.666;2024-01-15T14:39:13;17.13;;;7.82;;
36353;SDS011;22383;51.114;13.666;2024-01-15T14:41:41;22.55;;;8.45;;
36353;SDS011;22383;51.114;13.666;2024-01-15T14:44:09;17.90;;;8.30;;
36353;SDS011;22383;51.114;13.666;2024-01-15T14:46:36;17.23;;;6.93;;
36353;SDS011;22383;51.114;13.666;2024-01-15T14:49:03;22.05;;;7.47;;
36353;SDS011;22383;51.114;13.666;2024-01-15T14:51:32;19.02;;;7.70;;
36353;SDS011;22383;51.114;13.666;2024-01-15T14:54:00;32.97;;;10.35;;
36353;SDS011;22383;51.114;13.666;2024-01-15T14:56:27;25.40;;;9.25;;
36353;SDS011;22383;51.114;13.666;2024-01-15T14:58:54;23.02;;;8.30;;
36353;SDS011;22383;51.114;13.666;2024-01-15T15:01:21;28.90;;;8.73;;
36353;SDS011;22383;51.114;13.666;2024-01-15T15:03:50;27.35;;;8.55;;
36353;SDS011;22383;51.114;13.666;2024-01-15T15:06:17;21.30;;;8.98;;
36353;SDS011;22383;51.114;13.666;2024-01-15T15:08:45;21.88;;;8.52;;
36353;SDS011;22383;51.114;13.666;2024-01-15T15:11:12;23.42;;;8.60;;
36353;SDS011;22383;51.114;13.666;2024-01-15T15:13:39;34.20;;;10.43;;
36353;SDS011;22383;51.114;13.666;2024-01-15T15:16:12;18.45;;;8.35;;
36353;SDS011;22383;51.114;13.666;2024-01-15T15:18:41;18.52;;;7.72;;
36353;SDS011;22383;51.114;13.666;2024-01-15T15:21:13;19.98;;;8.35;;
36353;SDS011;22383;51.114;13.666;2024-01-15T15:23:41;20.17;;;8.55;;